Currently 78°F in Pinon Hills, California, USA
78°F
80°F / 61°F
3 mph SE
0.00"
Wednesday, October 18, 2017 3:07 PM PDT

Pinon Hills, California Climate Summary
Typical May Day

Normal High:    75.2°F (24.0°C)
Normal Low:    51.8°F (11.0°C)
Average:    63.3°F (17.4°C)

Hour    Temperature    Wind Speed    Humidity
12:00 AM    58°F (14°C)    3 mph    44%
1:00 AM    57°F (14°C)    3 mph    45%
2:00 AM    56°F (13°C)    3 mph    46%
3:00 AM    55°F (13°C)    3 mph    47%
4:00 AM    55°F (13°C)    3 mph    48%
5:00 AM    54°F (12°C)    3 mph    49%
6:00 AM    53°F (12°C)    3 mph    50%
7:00 AM    58°F (14°C)    2 mph    46%
8:00 AM    62°F (17°C)    4 mph    41%
9:00 AM    64°F (18°C)    4 mph    37%
10:00 AM    67°F (19°C)    4 mph    34%
11:00 AM    69°F (21°C)    4 mph    30%
12:00 PM    71°F (21°C)    5 mph    28%
1:00 PM    72°F (22°C)    5 mph    26%
2:00 PM    73°F (23°C)    5 mph    25%
3:00 PM    74°F (23°C)    6 mph    25%
4:00 PM    73°F (23°C)    6 mph    25%
5:00 PM    72°F (22°C)    6 mph    26%
6:00 PM    71°F (21°C)    7 mph    28%
7:00 PM    68°F (20°C)    6 mph    31%
8:00 PM    64°F (18°C)    5 mph    36%
9:00 PM    61°F (16°C)    4 mph    40%
10:00 PM    60°F (15°C)    3 mph    42%
11:00 PM    58°F (15°C)    3 mph    44%
 

The Pinon Hills, California weather pages are a service of WeatherCurrents.
Copyright ©Wed Oct 18 15:08:01 PDT 2017  WeatherCurrents. All rights reserved. - Submit questions and comments - Privacy Policy